sensor_id;sensor_type;location;lat;lon;timestamp;pressure;altitude;pressure_sealevel;temperature;humidity
61474;BME280;53694;49.784;30.150;2023-08-17T00:00:30;100182.63;;;22.85;66.85
61474;BME280;53694;49.784;30.150;2023-08-17T00:01:32;100184.13;;;22.89;66.40
61474;BME280;53694;49.784;30.150;2023-08-17T00:02:34;100197.06;;;22.83;66.15
61474;BME280;53694;49.784;30.150;2023-08-17T00:03:35;100192.90;;;22.71;66.30
61474;BME280;53694;49.784;30.150;2023-08-17T00:04:37;100193.63;;;22.56;66.67
61474;BME280;53694;49.784;30.150;2023-08-17T00:05:39;100189.58;;;22.37;67.52
61474;BME280;53694;49.784;30.150;2023-08-17T00:06:41;100192.70;;;22.19;67.85
61474;BME280;53694;49.784;30.150;2023-08-17T00:07:42;100197.80;;;22.01;68.73
61474;BME280;53694;49.784;30.150;2023-08-17T00:08:44;100187.68;;;21.83;69.56
61474;BME280;53694;49.784;30.150;2023-08-17T00:09:46;100187.97;;;21.65;70.01
61474;BME280;53694;49.784;30.150;2023-08-17T00:10:47;100188.20;;;21.51;70.96
61474;BME280;53694;49.784;30.150;2023-08-17T00:11:48;100192.36;;;21.39;71.87
61474;BME280;53694;49.784;30.150;2023-08-17T00:12:50;100185.25;;;21.35;72.19
61474;BME280;53694;49.784;30.150;2023-08-17T00:13:52;100194.33;;;21.42;72.26
61474;BME280;53694;49.784;30.150;2023-08-17T00:14:53;100188.52;;;21.57;71.76
61474;BME280;53694;49.784;30.150;2023-08-17T00:15:55;100194.98;;;21.77;71.64
61474;BME280;53694;49.784;30.150;2023-08-17T00:16:56;100187.41;;;22.01;70.64
61474;BME280;53694;49.784;30.150;2023-08-17T00:17:58;100191.42;;;22.24;69.61
61474;BME280;53694;49.784;30.150;2023-08-17T00:18:59;100182.19;;;22.46;68.44
61474;BME280;53694;49.784;30.150;2023-08-17T00:20:01;100191.05;;;22.65;67.77
61474;BME280;53694;49.784;30.150;2023-08-17T00:21:03;100183.58;;;22.78;67.22
61474;BME280;53694;49.784;30.150;2023-08-17T00:22:04;100185.52;;;22.81;67.18
61474;BME280;53694;49.784;30.150;2023-08-17T00:23:06;100188.45;;;22.74;67.12
61474;BME280;53694;49.784;30.150;2023-08-17T00:24:07;100185.08;;;22.63;67.57
61474;BME280;53694;49.784;30.150;2023-08-17T00:25:09;100185.77;;;22.47;67.69
61474;BME280;53694;49.784;30.150;2023-08-17T00:26:11;100184.11;;;22.30;67.80
61474;BME280;53694;49.784;30.150;2023-08-17T00:27:12;100179.63;;;22.12;68.31
61474;BME280;53694;49.784;30.150;2023-08-17T00:28:14;100180.35;;;21.93;68.86
61474;BME280;53694;49.784;30.150;2023-08-17T00:29:16;100183.45;;;21.75;69.44
61474;BME280;53694;49.784;30.150;2023-08-17T00:30:18;100187.29;;;21.58;69.98
61474;BME280;53694;49.784;30.150;2023-08-17T00:31:19;100185.94;;;21.42;70.67
61474;BME280;53694;49.784;30.150;2023-08-17T00:32:21;100185.75;;;21.26;71.35
61474;BME280;53694;49.784;30.150;2023-08-17T00:33:22;100188.36;;;21.10;71.83
61474;BME280;53694;49.784;30.150;2023-08-17T00:34:24;100190.05;;;21.04;72.28
61474;BME280;53694;49.784;30.150;2023-08-17T00:35:25;100184.78;;;21.09;72.79
61474;BME280;53694;49.784;30.150;2023-08-17T00:36:27;100185.39;;;21.24;72.81
61474;BME280;53694;49.784;30.150;2023-08-17T00:37:29;100188.26;;;21.48;72.36
61474;BME280;53694;49.784;30.150;2023-08-17T00:38:30;100185.52;;;21.71;71.16
61474;BME280;53694;49.784;30.150;2023-08-17T00:39:31;100186.73;;;21.93;70.19
61474;BME280;53694;49.784;30.150;2023-08-17T00:40:34;100187.17;;;22.15;69.65
61474;BME280;53694;49.784;30.150;2023-08-17T00:41:35;100185.99;;;22.36;68.89
61474;BME280;53694;49.784;30.150;2023-08-17T00:42:37;100189.95;;;22.59;68.18
61474;BME280;53694;49.784;30.150;2023-08-17T00:43:38;100186.52;;;22.71;67.16
61474;BME280;53694;49.784;30.150;2023-08-17T00:44:40;100190.03;;;22.75;66.97
61474;BME280;53694;49.784;30.150;2023-08-17T00:45:43;100190.27;;;22.64;66.62
61474;BME280;53694;49.784;30.150;2023-08-17T00:46:46;100190.52;;;22.50;66.75
61474;BME280;53694;49.784;30.150;2023-08-17T00:47:48;100200.48;;;22.31;67.46
61474;BME280;53694;49.784;30.150;2023-08-17T00:48:50;100197.60;;;22.11;67.92
61474;BME280;53694;49.784;30.150;2023-08-17T00:49:52;100197.19;;;21.89;68.46
61474;BME280;53694;49.784;30.150;2023-08-17T00:50:56;100193.52;;;21.69;68.93
61474;BME280;53694;49.784;30.150;2023-08-17T00:52:00;100195.80;;;21.51;69.60
61474;BME280;53694;49.784;30.150;2023-08-17T00:53:02;100198.44;;;21.34;70.28
61474;BME280;53694;49.784;30.150;2023-08-17T00:54:05;100199.80;;;21.19;70.90
61474;BME280;53694;49.784;30.150;2023-08-17T00:55:07;100198.43;;;21.04;71.40
61474;BME280;53694;49.784;30.150;2023-08-17T00:56:10;100200.09;;;20.97;72.01
61474;BME280;53694;49.784;30.150;2023-08-17T00:57:12;100190.45;;;21.02;72.27
61474;BME280;53694;49.784;30.150;2023-08-17T00:58:14;100191.06;;;21.17;72.02
61474;BME280;53694;49.784;30.150;2023-08-17T00:59:16;100195.27;;;21.59;70.83
61474;BME280;53694;49.784;30.150;2023-08-17T01:00:18;100195.27;;;21.59;70.83
61474;BME280;53694;49.784;30.150;2023-08-17T01:01:20;100190.13;;;21.81;70.30
61474;BME280;53694;49.784;30.150;2023-08-17T01:02:22;100191.77;;;22.02;69.42
61474;BME280;53694;49.784;30.150;2023-08-17T01:03:27;100199.87;;;22.20;68.68
61474;BME280;53694;49.784;30.150;2023-08-17T01:04:29;100192.81;;;22.35;68.12
61474;BME280;53694;49.784;30.150;2023-08-17T01:05:31;100199.36;;;22.49;67.57
61474;BME280;53694;49.784;30.150;2023-08-17T01:06:33;100200.14;;;22.49;67.28
61474;BME280;53694;49.784;30.150;2023-08-17T01:07:35;100198.34;;;22.39;67.66
61474;BME280;53694;49.784;30.150;2023-08-17T01:08:37;100191.36;;;22.27;68.03
61474;BME280;53694;49.784;30.150;2023-08-17T01:09:39;100195.24;;;22.10;68.73
61474;BME280;53694;49.784;30.150;2023-08-17T01:12:08;100184.34;;;21.68;70.09
61474;BME280;53694;49.784;30.150;2023-08-17T01:13:13;100197.07;;;21.46;71.22
61474;BME280;53694;49.784;30.150;2023-08-17T01:14:33;100205.30;;;21.26;72.09
61474;BME280;53694;49.784;30.150;2023-08-17T01:15:38;100193.55;;;21.11;72.61
61474;BME280;53694;49.784;30.150;2023-08-17T01:16:43;100198.27;;;21.14;73.28
61474;BME280;53694;49.784;30.150;2023-08-17T01:17:58;100204.03;;;21.31;73.18
61474;BME280;53694;49.784;30.150;2023-08-17T01:19:00;100197.81;;;21.50;72.39
61474;BME280;53694;49.784;30.150;2023-08-17T01:20:04;100197.05;;;21.73;71.02
61474;BME280;53694;49.784;30.150;2023-08-17T01:21:08;100200.77;;;21.90;70.18
61474;BME280;53694;49.784;30.150;2023-08-17T01:22:13;100201.62;;;22.10;69.50
61474;BME280;53694;49.784;30.150;2023-08-17T01:23:16;100201.77;;;22.27;68.66
61474;BME280;53694;49.784;30.150;2023-08-17T01:24:17;100193.88;;;22.41;68.20
61474;BME280;53694;49.784;30.150;2023-08-17T01:25:19;100196.56;;;22.49;67.90
61474;BME280;53694;49.784;30.150;2023-08-17T01:26:20;100202.66;;;22.43;67.97
61474;BME280;53694;49.784;30.150;2023-08-17T01:27:22;100197.31;;;22.29;68.09
61474;BME280;53694;49.784;30.150;2023-08-17T01:28:23;100195.59;;;22.12;68.68
61474;BME280;53694;49.784;30.150;2023-08-17T01:29:25;100188.36;;;21.91;69.05
61474;BME280;53694;49.784;30.150;2023-08-17T01:30:27;100192.67;;;21.72;69.88
61474;BME280;53694;49.784;30.150;2023-08-17T01:31:40;100192.17;;;21.54;70.63
61474;BME280;53694;49.784;30.150;2023-08-17T01:32:58;100200.44;;;21.34;70.92
61474;BME280;53694;49.784;30.150;2023-08-17T01:34:06;100200.70;;;21.12;71.48
61474;BME280;53694;49.784;30.150;2023-08-17T01:35:20;100200.88;;;20.98;72.51
61474;BME280;53694;49.784;30.150;2023-08-17T01:37:34;100198.23;;;21.18;72.58
61474;BME280;53694;49.784;30.150;2023-08-17T01:38:37;100195.95;;;21.40;71.92
61474;BME280;53694;49.784;30.150;2023-08-17T01:39:43;100196.06;;;21.60;71.32
61474;BME280;53694;49.784;30.150;2023-08-17T01:40:47;100194.93;;;21.81;70.45
61474;BME280;53694;49.784;30.150;2023-08-17T01:41:50;100200.22;;;21.99;69.85
61474;BME280;53694;49.784;30.150;2023-08-17T01:42:52;100196.79;;;22.14;69.23
61474;BME280;53694;49.784;30.150;2023-08-17T01:43:56;100196.52;;;22.29;68.84
61474;BME280;53694;49.784;30.150;2023-08-17T01:44:59;100191.59;;;22.36;67.99
61474;BME280;53694;49.784;30.150;2023-08-17T01:46:00;100192.09;;;22.31;67.98
61474;BME280;53694;49.784;30.150;2023-08-17T01:47:02;100185.89;;;22.20;68.04
61474;BME280;53694;49.784;30.150;2023-08-17T01:48:04;100189.41;;;22.01;68.28
61474;BME280;53694;49.784;30.150;2023-08-17T01:49:06;100195.36;;;21.79;68.93
61474;BME280;53694;49.784;30.150;2023-08-17T01:50:09;100198.55;;;21.54;69.70
61474;BME280;53694;49.784;30.150;2023-08-17T01:51:15;100200.45;;;21.30;70.43
61474;BME280;53694;49.784;30.150;2023-08-17T01:52:15;100200.00;;;21.05;71.01
61474;BME280;53694;49.784;30.150;2023-08-17T01:53:16;100204.28;;;20.82;72.15
61474;BME280;53694;49.784;30.150;2023-08-17T01:54:18;100202.49;;;20.65;72.96
61474;BME280;53694;49.784;30.150;2023-08-17T01:55:21;100197.73;;;20.62;73.52
61474;BME280;53694;49.784;30.150;2023-08-17T01:56:23;100200.85;;;20.67;73.58
61474;BME280;53694;49.784;30.150;2023-08-17T01:57:24;100201.85;;;20.84;73.31
61474;BME280;53694;49.784;30.150;2023-08-17T01:58:26;100204.05;;;21.00;72.33
61474;BME280;53694;49.784;30.150;2023-08-17T01:59:28;100202.20;;;21.20;71.84
61474;BME280;53694;49.784;30.150;2023-08-17T02:00:29;100193.20;;;21.36;70.69
61474;BME280;53694;49.784;30.150;2023-08-17T02:01:31;100198.95;;;21.53;69.95
61474;BME280;53694;49.784;30.150;2023-08-17T02:02:32;100201.16;;;21.65;69.42
61474;BME280;53694;49.784;30.150;2023-08-17T02:03:34;100194.98;;;21.77;69.06
61474;BME280;53694;49.784;30.150;2023-08-17T02:04:36;100198.08;;;21.83;68.46
61474;BME280;53694;49.784;30.150;2023-08-17T02:05:37;100198.56;;;21.78;68.46
61474;BME280;53694;49.784;30.150;2023-08-17T02:06:39;100196.80;;;21.64;68.70
61474;BME280;53694;49.784;30.150;2023-08-17T02:07:40;100197.86;;;21.46;69.28
61474;BME280;53694;49.784;30.150;2023-08-17T02:08:42;100199.71;;;21.26;69.83
61474;BME280;53694;49.784;30.150;2023-08-17T02:09:43;100191.67;;;21.01;70.60
61474;BME280;53694;49.784;30.150;2023-08-17T02:10:45;100207.90;;;20.79;71.46
61474;BME280;53694;49.784;30.150;2023-08-17T02:11:46;100200.56;;;20.58;72.58
61474;BME280;53694;49.784;30.150;2023-08-17T02:12:48;100194.69;;;20.45;73.11
61474;BME280;53694;49.784;30.150;2023-08-17T02:13:49;100203.09;;;20.42;73.37
61474;BME280;53694;49.784;30.150;2023-08-17T02:14:51;100198.27;;;20.50;73.44
61474;BME280;53694;49.784;30.150;2023-08-17T02:15:52;100196.09;;;20.64;73.23
61474;BME280;53694;49.784;30.150;2023-08-17T02:16:54;100197.48;;;20.83;72.59
61474;BME280;53694;49.784;30.150;2023-08-17T02:17:59;100195.25;;;21.02;71.92
61474;BME280;53694;49.784;30.150;2023-08-17T02:19:00;100192.59;;;21.21;71.38
61474;BME280;53694;49.784;30.150;2023-08-17T02:20:02;100195.55;;;21.41;70.66
61474;BME280;53694;49.784;30.150;2023-08-17T02:21:04;100193.70;;;21.58;69.87
61474;BME280;53694;49.784;30.150;2023-08-17T02:22:05;100190.28;;;21.70;69.13
61474;BME280;53694;49.784;30.150;2023-08-17T02:23:07;100186.89;;;21.83;68.64
61474;BME280;53694;49.784;30.150;2023-08-17T02:24:08;100193.59;;;21.89;68.53
61474;BME280;53694;49.784;30.150;2023-08-17T02:25:10;100185.27;;;21.85;68.23
61474;BME280;53694;49.784;30.150;2023-08-17T02:26:12;100183.45;;;21.75;68.22
61474;BME280;53694;49.784;30.150;2023-08-17T02:27:13;100187.29;;;21.58;68.51
61474;BME280;53694;49.784;30.150;2023-08-17T02:28:15;100192.41;;;21.36;69.17
61474;BME280;53694;49.784;30.150;2023-08-17T02:29:16;100188.79;;;21.08;69.86
61474;BME280;53694;49.784;30.150;2023-08-17T02:30:18;100198.66;;;20.86;70.73
61474;BME280;53694;49.784;30.150;2023-08-17T02:31:20;100190.16;;;20.62;71.54
61474;BME280;53694;49.784;30.150;2023-08-17T02:32:22;100192.72;;;20.42;72.47
61474;BME280;53694;49.784;30.150;2023-08-17T02:33:24;100192.09;;;20.28;73.20
61474;BME280;53694;49.784;30.150;2023-08-17T02:34:26;100189.70;;;20.26;73.69
61474;BME280;53694;49.784;30.150;2023-08-17T02:35:27;100196.00;;;20.34;73.68
61474;BME280;53694;49.784;30.150;2023-08-17T02:36:29;100205.42;;;20.51;73.45
61474;BME280;53694;49.784;30.150;2023-08-17T02:37:31;100205.22;;;20.68;73.09
61474;BME280;53694;49.784;30.150;2023-08-17T02:38:32;100198.23;;;20.87;72.35
61474;BME280;53694;49.784;30.150;2023-08-17T02:39:34;100192.84;;;21.04;71.30
61474;BME280;53694;49.784;30.150;2023-08-17T02:40:36;100199.02;;;21.18;70.79
61474;BME280;53694;49.784;30.150;2023-08-17T02:41:37;100206.03;;;21.34;70.26
61474;BME280;53694;49.784;30.150;2023-08-17T02:42:39;100192.63;;;21.49;70.05
61474;BME280;53694;49.784;30.150;2023-08-17T02:43:40;100198.85;;;21.60;69.31
61474;BME280;53694;49.784;30.150;2023-08-17T02:44:42;100201.06;;;21.72;68.71
61474;BME280;53694;49.784;30.150;2023-08-17T02:45:43;100196.50;;;21.82;68.42
61474;BME280;53694;49.784;30.150;2023-08-17T02:46:45;100193.66;;;21.85;68.13
61474;BME280;53694;49.784;30.150;2023-08-17T02:47:46;100197.34;;;21.79;67.93
61474;BME280;53694;49.784;30.150;2023-08-17T02:48:48;100201.59;;;21.63;68.22
61474;BME280;53694;49.784;30.150;2023-08-17T02:49:49;100198.34;;;21.41;68.98
61474;BME280;53694;49.784;30.150;2023-08-17T02:50:51;100200.66;;;21.16;69.71
61474;BME280;53694;49.784;30.150;2023-08-17T02:51:52;100208.18;;;20.88;70.33
61474;BME280;53694;49.784;30.150;2023-08-17T02:52:54;100202.10;;;20.63;71.17
61474;BME280;53694;49.784;30.150;2023-08-17T02:53:55;100211.50;;;20.38;72.06
61474;BME280;53694;49.784;30.150;2023-08-17T02:54:57;100202.52;;;20.20;72.79
61474;BME280;53694;49.784;30.150;2023-08-17T02:55:58;100201.79;;;20.12;73.39
61474;BME280;53694;49.784;30.150;2023-08-17T02:57:00;100203.34;;;20.17;73.75
61474;BME280;53694;49.784;30.150;2023-08-17T02:58:02;100209.19;;;20.30;73.58
61474;BME280;53694;49.784;30.150;2023-08-17T02:59:04;100206.25;;;20.47;73.26
61474;BME280;53694;49.784;30.150;2023-08-17T03:00:07;100204.47;;;20.64;72.53
61474;BME280;53694;49.784;30.150;2023-08-17T03:01:08;100200.63;;;20.85;72.32
61474;BME280;53694;49.784;30.150;2023-08-17T03:02:10;100198.43;;;21.04;71.28
61474;BME280;53694;49.784;30.150;2023-08-17T03:03:12;100207.82;;;21.17;70.49
61474;BME280;53694;49.784;30.150;2023-08-17T03:04:13;100203.25;;;21.30;70.38
61474;BME280;53694;49.784;30.150;2023-08-17T03:05:15;100202.70;;;21.42;69.44
61474;BME280;53694;49.784;30.150;2023-08-17T03:06:17;100201.80;;;21.49;68.66
61474;BME280;53694;49.784;30.150;2023-08-17T03:07:18;100203.35;;;21.54;68.74
61474;BME280;53694;49.784;30.150;2023-08-17T03:08:20;100207.67;;;21.58;68.65
61474;BME280;53694;49.784;30.150;2023-08-17T03:09:21;100201.34;;;21.54;68.54
61474;BME280;53694;49.784;30.150;2023-08-17T03:10:23;100207.13;;;21.40;68.80
61474;BME280;53694;49.784;30.150;2023-08-17T03:11:24;100216.95;;;21.21;69.22
61474;BME280;53694;49.784;30.150;2023-08-17T03:12:26;100205.67;;;20.97;69.83
61474;BME280;53694;49.784;30.150;2023-08-17T03:13:27;100207.58;;;20.74;70.55
61474;BME280;53694;49.784;30.150;2023-08-17T03:14:29;100214.19;;;20.53;71.31
61474;BME280;53694;49.784;30.150;2023-08-17T03:15:30;100217.56;;;20.30;72.18
61474;BME280;53694;49.784;30.150;2023-08-17T03:16:32;100211.34;;;20.15;73.04
61474;BME280;53694;49.784;30.150;2023-08-17T03:17:34;100217.73;;;20.12;73.58
61474;BME280;53694;49.784;30.150;2023-08-17T03:18:35;100218.07;;;20.17;73.58
61474;BME280;53694;49.784;30.150;2023-08-17T03:19:37;100216.77;;;20.29;73.72
61474;BME280;53694;49.784;30.150;2023-08-17T03:20:39;100212.91;;;20.61;72.47
61474;BME280;53694;49.784;30.150;2023-08-17T03:21:40;100212.91;;;20.61;72.47
61474;BME280;53694;49.784;30.150;2023-08-17T03:22:42;100218.67;;;20.77;71.86
61474;BME280;53694;49.784;30.150;2023-08-17T03:23:43;100218.52;;;20.91;71.18
61474;BME280;53694;49.784;30.150;2023-08-17T03:24:45;100218.72;;;21.08;70.89
61474;BME280;53694;49.784;30.150;2023-08-17T03:25:52;100217.69;;;21.25;70.14
61474;BME280;53694;49.784;30.150;2023-08-17T03:26:54;100217.89;;;21.41;69.71
61474;BME280;53694;49.784;30.150;2023-08-17T03:27:55;100223.63;;;21.58;69.00
61474;BME280;53694;49.784;30.150;2023-08-17T03:28:57;100210.67;;;21.71;68.46
61474;BME280;53694;49.784;30.150;2023-08-17T03:29:58;100218.13;;;21.78;68.02
61474;BME280;53694;49.784;30.150;2023-08-17T03:31:00;100217.39;;;21.74;67.82
61474;BME280;53694;49.784;30.150;2023-08-17T03:32:01;100214.41;;;21.61;67.92
61474;BME280;53694;49.784;30.150;2023-08-17T03:33:04;100225.06;;;21.42;68.33
61474;BME280;53694;49.784;30.150;2023-08-17T03:34:05;100222.14;;;21.19;68.88
61474;BME280;53694;49.784;30.150;2023-08-17T03:35:08;100221.67;;;20.93;69.66
61474;BME280;53694;49.784;30.150;2023-08-17T03:36:09;100216.77;;;20.70;70.40
61474;BME280;53694;49.784;30.150;2023-08-17T03:37:11;100222.16;;;20.51;71.22
61474;BME280;53694;49.784;30.150;2023-08-17T03:38:12;100225.53;;;20.31;72.17
61474;BME280;53694;49.784;30.150;2023-08-17T03:39:14;100220.86;;;20.17;72.96
61474;BME280;53694;49.784;30.150;2023-08-17T03:40:15;100221.28;;;20.16;73.44
61474;BME280;53694;49.784;30.150;2023-08-17T03:41:17;100222.80;;;20.24;73.42
61474;BME280;53694;49.784;30.150;2023-08-17T03:42:19;100226.66;;;20.37;73.19
61474;BME280;53694;49.784;30.150;2023-08-17T03:43:21;100225.31;;;20.56;72.85
61474;BME280;53694;49.784;30.150;2023-08-17T03:44:22;100220.31;;;20.75;72.13
61474;BME280;53694;49.784;30.150;2023-08-17T03:45:24;100225.68;;;20.92;71.55
61474;BME280;53694;49.784;30.150;2023-08-17T03:46:25;100228.99;;;21.14;71.06
61474;BME280;53694;49.784;30.150;2023-08-17T03:47:27;100223.59;;;21.31;70.03
61474;BME280;53694;49.784;30.150;2023-08-17T03:48:28;100225.80;;;21.46;69.67
61474;BME280;53694;49.784;30.150;2023-08-17T03:49:30;100211.25;;;21.59;69.26
61474;BME280;53694;49.784;30.150;2023-08-17T03:50:31;100219.84;;;21.71;68.81
61474;BME280;53694;49.784;30.150;2023-08-17T03:51:33;100220.52;;;21.79;68.21
61474;BME280;53694;49.784;30.150;2023-08-17T03:52:34;100214.60;;;21.74;68.10
61474;BME280;53694;49.784;30.150;2023-08-17T03:53:36;100224.00;;;21.60;68.30
61474;BME280;53694;49.784;30.150;2023-08-17T03:54:37;100221.09;;;21.40;68.72
61474;BME280;53694;49.784;30.150;2023-08-17T03:55:45;100218.16;;;21.20;69.53
61474;BME280;53694;49.784;30.150;2023-08-17T03:56:44;100228.80;;;20.98;70.26
61474;BME280;53694;49.784;30.150;2023-08-17T03:57:46;100223.53;;;20.73;70.95
61474;BME280;53694;49.784;30.150;2023-08-17T03:58:47;100220.55;;;20.53;71.85
61474;BME280;53694;49.784;30.150;2023-08-17T03:59:49;100216.68;;;20.40;72.57
61474;BME280;53694;49.784;30.150;2023-08-17T04:00:51;100225.44;;;20.38;73.04
61474;BME280;53694;49.784;30.150;2023-08-17T04:01:52;100228.56;;;20.47;73.10
61474;BME280;53694;49.784;30.150;2023-08-17T04:02:54;100225.22;;;20.63;72.95
61474;BME280;53694;49.784;30.150;2023-08-17T04:03:55;100223.82;;;20.82;72.44
61474;BME280;53694;49.784;30.150;2023-08-17T04:04:57;100222.77;;;21.03;71.99
61474;BME280;53694;49.784;30.150;2023-08-17T04:06:06;100226.86;;;21.26;71.25
61474;BME280;53694;49.784;30.150;2023-08-17T04:07:08;100225.80;;;21.46;70.66
61474;BME280;53694;49.784;30.150;2023-08-17T04:08:10;100211.94;;;21.66;69.82
61474;BME280;53694;49.784;30.150;2023-08-17T04:09:11;100207.63;;;21.85;69.46
61474;BME280;53694;49.784;30.150;2023-08-17T04:10:13;100216.16;;;22.02;68.76
61474;BME280;53694;49.784;30.150;2023-08-17T04:11:15;100219.57;;;22.13;68.32
61474;BME280;53694;49.784;30.150;2023-08-17T04:12:16;100211.34;;;22.02;68.35
61474;BME280;53694;49.784;30.150;2023-08-17T04:13:18;100211.34;;;22.02;68.35
61474;BME280;53694;49.784;30.150;2023-08-17T04:14:19;100218.44;;;21.83;68.89
61474;BME280;53694;49.784;30.150;2023-08-17T04:15:21;100219.59;;;21.62;69.65
61474;BME280;53694;49.784;30.150;2023-08-17T04:16:22;100218.25;;;21.43;70.45
61474;BME280;53694;49.784;30.150;2023-08-17T04:17:24;100216.11;;;21.24;71.17
61474;BME280;53694;49.784;30.150;2023-08-17T04:18:25;100213.97;;;21.05;72.22
61474;BME280;53694;49.784;30.150;2023-08-17T04:19:27;100216.95;;;20.90;73.06
61474;BME280;53694;49.784;30.150;2023-08-17T04:20:28;100218.95;;;20.90;73.60
61474;BME280;53694;49.784;30.150;2023-08-17T04:21:30;100217.63;;;20.98;73.69
61474;BME280;53694;49.784;30.150;2023-08-17T04:22:31;100225.80;;;21.16;73.48
61474;BME280;53694;49.784;30.150;2023-08-17T04:23:33;100219.56;;;21.35;72.99
61474;BME280;53694;49.784;30.150;2023-08-17T04:24:34;100216.84;;;21.59;72.22
61474;BME280;53694;49.784;30.150;2023-08-17T04:25:36;100218.08;;;21.81;71.48
61474;BME280;53694;49.784;30.150;2023-08-17T04:26:38;100212.57;;;22.01;70.84
61474;BME280;53694;49.784;30.150;2023-08-17T04:27:39;100220.63;;;22.23;69.54
61474;BME280;53694;49.784;30.150;2023-08-17T04:28:41;100217.56;;;22.37;68.97
61474;BME280;53694;49.784;30.150;2023-08-17T04:29:42;100221.69;;;22.52;68.22
61474;BME280;53694;49.784;30.150;2023-08-17T04:30:44;100224.77;;;22.58;67.65
61474;BME280;53694;49.784;30.150;2023-08-17T04:31:45;100220.90;;;22.52;67.76
61474;BME280;53694;49.784;30.150;2023-08-17T04:32:47;100227.12;;;22.39;68.31
61474;BME280;53694;49.784;30.150;2023-08-17T04:33:48;100226.16;;;22.26;68.79
61474;BME280;53694;49.784;30.150;2023-08-17T04:34:50;100227.58;;;22.11;69.18
61474;BME280;53694;49.784;30.150;2023-08-17T04:35:51;100223.87;;;21.94;69.72
61474;BME280;53694;49.784;30.150;2023-08-17T04:36:53;100227.30;;;21.78;70.36
61474;BME280;53694;49.784;30.150;2023-08-17T04:37:55;100237.98;;;21.60;70.97
61474;BME280;53694;49.784;30.150;2023-08-17T04:38:56;100232.22;;;21.43;71.71
61474;BME280;53694;49.784;30.150;2023-08-17T04:39:58;100235.55;;;21.31;72.28
61474;BME280;53694;49.784;30.150;2023-08-17T04:40:59;100233.17;;;21.33;72.68
61474;BME280;53694;49.784;30.150;2023-08-17T04:42:03;100236.23;;;21.42;72.63
61474;BME280;53694;49.784;30.150;2023-08-17T04:43:05;100224.00;;;21.60;72.59
61474;BME280;53694;49.784;30.150;2023-08-17T04:44:07;100232.06;;;21.81;71.94
61474;BME280;53694;49.784;30.150;2023-08-17T04:45:09;100231.28;;;22.04;71.28
61474;BME280;53694;49.784;30.150;2023-08-17T04:46:10;100226.95;;;22.27;70.31
61474;BME280;53694;49.784;30.150;2023-08-17T04:47:12;100234.52;;;22.50;69.71
61474;BME280;53694;49.784;30.150;2023-08-17T04:48:13;100226.22;;;22.66;68.92
61474;BME280;53694;49.784;30.150;2023-08-17T04:49:15;100225.07;;;22.83;68.18
61474;BME280;53694;49.784;30.150;2023-08-17T04:50:17;100230.50;;;22.94;67.76
61474;BME280;53694;49.784;30.150;2023-08-17T04:51:18;100226.47;;;22.95;67.23
61474;BME280;53694;49.784;30.150;2023-08-17T04:52:20;100228.24;;;22.85;67.46
61474;BME280;53694;49.784;30.150;2023-08-17T04:53:21;100232.88;;;22.72;67.82
61474;BME280;53694;49.784;30.150;2023-08-17T04:54:23;100232.44;;;22.54;68.24
61474;BME280;53694;49.784;30.150;2023-08-17T04:55:25;100230.03;;;22.32;68.96
61474;BME280;53694;49.784;30.150;2023-08-17T04:56:26;100230.77;;;22.13;69.77
61474;BME280;53694;49.784;30.150;2023-08-17T04:57:28;100218.62;;;21.96;70.52
61474;BME280;53694;49.784;30.150;2023-08-17T04:58:30;100226.91;;;21.80;71.37
61474;BME280;53694;49.784;30.150;2023-08-17T04:59:31;100235.92;;;21.64;72.09
61474;BME280;53694;49.784;30.150;2023-08-17T05:00:32;100237.67;;;21.54;72.81
61474;BME280;53694;49.784;30.150;2023-08-17T05:01:34;100229.59;;;21.60;73.16
61474;BME280;53694;49.784;30.150;2023-08-17T05:02:36;100227.80;;;21.73;73.09
61474;BME280;53694;49.784;30.150;2023-08-17T05:03:38;100230.68;;;21.93;72.37
61474;BME280;53694;49.784;30.150;2023-08-17T05:04:39;100231.14;;;22.15;71.70
61474;BME280;53694;49.784;30.150;2023-08-17T05:05:41;100226.02;;;22.33;71.05
61474;BME280;53694;49.784;30.150;2023-08-17T05:06:42;100229.64;;;22.54;70.39
61474;BME280;53694;49.784;30.150;2023-08-17T05:07:44;100228.44;;;22.75;69.97
61474;BME280;53694;49.784;30.150;2023-08-17T05:08:45;100232.07;;;22.95;69.25
61474;BME280;53694;49.784;30.150;2023-08-17T05:09:47;100233.27;;;23.14;68.21
61474;BME280;53694;49.784;30.150;2023-08-17T05:10:49;100233.05;;;23.25;67.79
61474;BME280;53694;49.784;30.150;2023-08-17T05:11:50;100235.41;;;23.26;67.71
61474;BME280;53694;49.784;30.150;2023-08-17T05:12:52;100228.62;;;23.07;67.80
61474;BME280;53694;49.784;30.150;2023-08-17T05:13:53;100228.62;;;23.07;67.80
61474;BME280;53694;49.784;30.150;2023-08-17T05:14:55;100236.17;;;22.90;68.38
61474;BME280;53694;49.784;30.150;2023-08-17T05:15:56;100224.48;;;22.72;68.99
61474;BME280;53694;49.784;30.150;2023-08-17T05:16:58;100237.19;;;22.57;69.51
61474;BME280;53694;49.784;30.150;2023-08-17T05:17:59;100231.48;;;22.40;70.15
61474;BME280;53694;49.784;30.150;2023-08-17T05:19:01;100230.53;;;22.27;70.74
61474;BME280;53694;49.784;30.150;2023-08-17T05:20:04;100238.74;;;22.14;71.23
61474;BME280;53694;49.784;30.150;2023-08-17T05:21:06;100231.22;;;22.08;71.72
61474;BME280;53694;49.784;30.150;2023-08-17T05:22:09;100230.77;;;22.13;71.95
61474;BME280;53694;49.784;30.150;2023-08-17T05:23:11;100230.94;;;22.26;71.51